Time;durP1;ratioP1;P1;durP2;ratioP2;P2;SDS_P1;SDS_P2;PMS_P1;PMS_P2;Temp;Humidity;BMP_temperature;BMP_pressure;BME280_temperature;BME280_humidity;BME280_pressure;Samples;Min_cycle;Max_cycle;Signal;HPM_P1;HPM_P2
2022/11/07 00:01:31;;;;;;;;;;;;;;;;;;5013819;28;8346;-87
2022/11/07 00:03:56;;;;;;;;;;;;;;;;;;4997659;28;8393;-87
2022/11/07 00:06:22;;;;;;;;;;;;;;;;;;4997416;28;8604;-86
2022/11/07 00:08:50;;;;;;;;;;;;;;;;;;4997377;28;7038;-87
2022/11/07 00:11:15;;;;;;;;;;;;;;;;;;5013646;28;7432;-88
2022/11/07 00:13:41;;;;;;;;;;;;;;;;;;5014089;28;8377;-87
2022/11/07 00:16:08;;;;;;;;;;;;;;;;;;5014122;28;7121;-87
2022/11/07 00:18:34;;;;;;;;;;;;;;;;;;4997884;28;7407;-87
2022/11/07 00:21:01;;;;;;;;;;;;;;;;;;4997594;28;8613;-83
2022/11/07 00:23:26;;;;;;;;;;;;;;;;;;4998318;28;8323;-83
2022/11/07 00:25:52;;;;;;;;;;;;;;;;;;4997389;28;8306;-83
2022/11/07 00:28:17;;;;;;;;;;;;;;;;;;4997301;28;6996;-83
2022/11/07 00:30:43;;;;;;;;;;;;;;;;;;5013313;28;7241;-83
2022/11/07 00:33:08;;;;;;;;;;;;;;;;;;5013419;28;8734;-83
2022/11/07 00:35:34;;;;;;;;;;;;;;;;;;5013658;28;8735;-83
2022/11/07 00:37:59;;;;;;;;;;;;;;;;;;4998233;28;8866;-83
2022/11/07 00:40:24;;;;;;;;;;;;;;;;;;5013550;28;8428;-83
2022/11/07 00:42:50;;;;;;;;;;;;;;;;;;5013375;28;7005;-83
2022/11/07 00:45:15;;;;;;;;;;;;;;;;;;5013364;28;8761;-83
2022/11/07 00:47:41;;;;;;;;;;;;;;;;;;5015397;28;6996;-83
2022/11/07 00:50:07;;;;;;;;;;;;;;;;;;5017005;28;7006;-83
2022/11/07 00:52:32;;;;;;;;;;;;;;;;;;5001592;28;8786;-82
2022/11/07 00:54:58;;;;;;;;;;;;;;;;;;5017457;28;8763;-83
2022/11/07 00:57:24;;;;;;;;;;;;;;;;;;5016917;28;8822;-82
2022/11/07 00:59:49;;;;;;;;;;;;;;;;;;5016947;28;7173;-83
2022/11/07 01:02:15;;;;;;;;;;;;;;;;;;5016948;28;8382;-83
2022/11/07 01:07:25;;;;;;;;;;;;;;;;;;5018503;28;6933;-85
2022/11/07 01:09:50;;;;;;;;;;;;;;;;;;5016776;28;7394;-87
2022/11/07 01:12:16;;;;;;;;;;;;;;;;;;5016734;28;8477;-86
2022/11/07 01:14:41;;;;;;;;;;;;;;;;;;5016764;28;8753;-86
2022/11/07 01:17:07;;;;;;;;;;;;;;;;;;5017179;28;8333;-86
2022/11/07 01:19:33;;;;;;;;;;;;;;;;;;5013202;28;8511;-86
2022/11/07 01:21:58;;;;;;;;;;;;;;;;;;4997309;28;9261;-87
2022/11/07 01:24:24;;;;;;;;;;;;;;;;;;4998251;28;7226;-86
2022/11/07 01:26:50;;;;;;;;;;;;;;;;;;4997175;28;8794;-86
2022/11/07 01:29:17;;;;;;;;;;;;;;;;;;4997068;28;7179;-87
2022/11/07 01:31:43;;;;;;;;;;;;;;;;;;4996632;28;6825;-88
2022/11/07 01:34:08;;;;;;;;;;;;;;;;;;4997116;28;7165;-87
2022/11/07 01:36:34;;;;;;;;;;;;;;;;;;4996620;28;9635;-87
2022/11/07 01:39:00;;;;;;;;;;;;;;;;;;4996666;28;8415;-87
2022/11/07 01:41:27;;;;;;;;;;;;;;;;;;4996693;28;7167;-87
2022/11/07 01:44:00;;;;;;;;;;;;;;;;;;4997123;28;8488;-87
2022/11/07 01:46:31;;;;;;;;;;;;;;;;;;4996608;28;8413;-87
2022/11/07 01:49:01;;;;;;;;;;;;;;;;;;4996911;28;8342;-87
2022/11/07 01:51:30;;;;;;;;;;;;;;;;;;4996556;28;7071;-87
2022/11/07 01:53:56;;;;;;;;;;;;;;;;;;4996903;28;8433;-87
2022/11/07 01:56:25;;;;;;;;;;;;;;;;;;4996313;28;7128;-87
2022/11/07 01:58:54;;;;;;;;;;;;;;;;;;4995297;28;8367;-86
2022/11/07 02:01:20;;;;;;;;;;;;;;;;;;5188112;23;8743;-86
2022/11/07 02:03:46;;;;;;;;;;;;;;;;;;5016116;28;7014;-88
2022/11/07 02:06:26;;;;;;;;;;;;;;;;;;5015767;28;7186;-87
2022/11/07 02:08:53;;;;;;;;;;;;;;;;;;5015789;28;8426;-86
2022/11/07 02:11:20;;;;;;;;;;;;;;;;;;5014848;28;8392;-87
2022/11/07 02:13:45;;;;;;;;;;;;;;;;;;5016152;28;7149;-86
2022/11/07 02:16:11;;;;;;;;;;;;;;;;;;5015401;28;8412;-86
2022/11/07 02:18:40;;;;;;;;;;;;;;;;;;5015569;28;6827;-87
2022/11/07 02:21:14;;;;;;;;;;;;;;;;;;5015249;28;7247;-86
2022/11/07 02:23:46;;;;;;;;;;;;;;;;;;5015940;28;7234;-87
2022/11/07 02:26:11;;;;;;;;;;;;;;;;;;5015458;28;8397;-86
2022/11/07 02:28:40;;;;;;;;;;;;;;;;;;5015191;28;7352;-87
2022/11/07 02:31:05;;;;;;;;;;;;;;;;;;5015168;28;7009;-86
2022/11/07 02:33:31;;;;;;;;;;;;;;;;;;5015314;28;7409;-87
2022/11/07 02:35:57;;;;;;;;;;;;;;;;;;5015155;28;7044;-86
2022/11/07 02:38:26;;;;;;;;;;;;;;;;;;5015240;28;8457;-86
2022/11/07 02:40:54;;;;;;;;;;;;;;;;;;5015216;28;8446;-87
2022/11/07 02:43:24;;;;;;;;;;;;;;;;;;5015415;28;8510;-87
2022/11/07 02:45:50;;;;;;;;;;;;;;;;;;5017596;28;8506;-87
2022/11/07 02:48:16;;;;;;;;;;;;;;;;;;5015196;28;7155;-86
2022/11/07 02:50:42;;;;;;;;;;;;;;;;;;5014981;28;8485;-87
2022/11/07 02:53:08;;;;;;;;;;;;;;;;;;5015229;28;7031;-87
2022/11/07 02:55:33;;;;;;;;;;;;;;;;;;5014874;28;7050;-86
2022/11/07 02:57:58;;;;;;;;;;;;;;;;;;5015238;28;7025;-86
2022/11/07 03:00:24;;;;;;;;;;;;;;;;;;5014647;28;7038;-87
2022/11/07 03:02:50;;;;;;;;;;;;;;;;;;5014515;28;8319;-87
2022/11/07 03:05:17;;;;;;;;;;;;;;;;;;5014730;28;8915;-87
2022/11/07 03:07:43;;;;;;;;;;;;;;;;;;5015049;28;8326;-87
2022/11/07 03:10:10;;;;;;;;;;;;;;;;;;5014246;28;7172;-87
2022/11/07 03:12:35;;;;;;;;;;;;;;;;;;5014556;28;8454;-86
2022/11/07 03:15:02;;;;;;;;;;;;;;;;;;5014360;28;8403;-87
2022/11/07 03:17:27;;;;;;;;;;;;;;;;;;5014631;28;8345;-85
2022/11/07 03:19:53;;;;;;;;;;;;;;;;;;5014302;28;8795;-86
2022/11/07 03:22:18;;;;;;;;;;;;;;;;;;5014195;28;8387;-85
2022/11/07 03:24:44;;;;;;;;;;;;;;;;;;5014233;28;8429;-86
2022/11/07 03:27:09;;;;;;;;;;;;;;;;;;5014531;28;7173;-87
2022/11/07 03:29:35;;;;;;;;;;;;;;;;;;5014084;28;8708;-86
2022/11/07 03:32:00;;;;;;;;;;;;;;;;;;5014204;28;7050;-86
2022/11/07 03:34:26;;;;;;;;;;;;;;;;;;5014561;28;8512;-87
2022/11/07 03:36:51;;;;;;;;;;;;;;;;;;5014357;28;9289;-86
2022/11/07 03:39:16;;;;;;;;;;;;;;;;;;5013986;28;7147;-87
2022/11/07 03:41:42;;;;;;;;;;;;;;;;;;5014417;28;8322;-87
2022/11/07 03:44:07;;;;;;;;;;;;;;;;;;5014298;28;8305;-86
2022/11/07 03:46:33;;;;;;;;;;;;;;;;;;5014052;28;7160;-86
2022/11/07 03:48:58;;;;;;;;;;;;;;;;;;5014530;28;8359;-87
2022/11/07 03:51:24;;;;;;;;;;;;;;;;;;5014556;28;8362;-86
2022/11/07 03:53:49;;;;;;;;;;;;;;;;;;5013954;28;8419;-86
2022/11/07 03:56:14;;;;;;;;;;;;;;;;;;5013837;28;8459;-87
2022/11/07 03:58:40;;;;;;;;;;;;;;;;;;5014306;28;8434;-87
2022/11/07 04:01:05;;;;;;;;;;;;;;;;;;5013716;28;8472;-86
2022/11/07 04:03:31;;;;;;;;;;;;;;;;;;5013726;28;7008;-87
2022/11/07 04:05:58;;;;;;;;;;;;;;;;;;5014118;28;7083;-87
2022/11/07 04:08:24;;;;;;;;;;;;;;;;;;5013961;28;7071;-86
2022/11/07 04:10:50;;;;;;;;;;;;;;;;;;5014180;28;8378;-86
2022/11/07 04:18:44;;;;;;;;;;;;;;;;;;5014832;28;7001;-86
2022/11/07 04:21:10;;;;;;;;;;;;;;;;;;5013887;28;8676;-88
2022/11/07 04:23:36;;;;;;;;;;;;;;;;;;5016532;28;8366;-87
2022/11/07 04:28:46;;;;;;;;;;;;;;;;;;5019072;28;6921;-88
2022/11/07 04:31:12;;;;;;;;;;;;;;;;;;5017482;28;8386;-87
2022/11/07 04:33:37;;;;;;;;;;;;;;;;;;5017493;28;7192;-87
2022/11/07 04:36:03;;;;;;;;;;;;;;;;;;5017382;28;8290;-86
2022/11/07 04:38:28;;;;;;;;;;;;;;;;;;5017317;28;8408;-87
2022/11/07 04:40:57;;;;;;;;;;;;;;;;;;5017459;28;7022;-86
2022/11/07 04:43:24;;;;;;;;;;;;;;;;;;5017140;28;7036;-87
2022/11/07 04:45:49;;;;;;;;;;;;;;;;;;5017167;28;9353;-87
2022/11/07 04:48:15;;;;;;;;;;;;;;;;;;5017129;28;8663;-86
2022/11/07 04:50:42;;;;;;;;;;;;;;;;;;5016926;28;8516;-87
2022/11/07 04:53:11;;;;;;;;;;;;;;;;;;5017219;28;8422;-86
2022/11/07 04:55:36;;;;;;;;;;;;;;;;;;5017346;28;8733;-86
2022/11/07 04:58:02;;;;;;;;;;;;;;;;;;5017011;28;8739;-86
2022/11/07 05:00:27;;;;;;;;;;;;;;;;;;5016967;28;6988;-83
2022/11/07 05:02:53;;;;;;;;;;;;;;;;;;5016813;28;7004;-83
2022/11/07 05:05:19;;;;;;;;;;;;;;;;;;5016691;28;6959;-84
2022/11/07 05:07:44;;;;;;;;;;;;;;;;;;5016922;28;8749;-84
2022/11/07 05:10:18;;;;;;;;;;;;;;;;;;5016837;28;8559;-84
2022/11/07 05:12:44;;;;;;;;;;;;;;;;;;5016936;28;7405;-84
2022/11/07 05:15:10;;;;;;;;;;;;;;;;;;5016514;28;8697;-84
2022/11/07 05:17:35;;;;;;;;;;;;;;;;;;5016684;28;8809;-83
2022/11/07 05:20:01;;;;;;;;;;;;;;;;;;5029611;28;8426;-86
2022/11/07 05:25:10;;;;;;;;;;;;;;;;;;5029738;28;7122;-86
2022/11/07 05:27:36;;;;;;;;;;;;;;;;;;5024307;28;8387;-85
2022/11/07 05:30:01;;;;;;;;;;;;;;;;;;5022510;28;8451;-86
2022/11/07 05:32:26;;;;;;;;;;;;;;;;;;5019229;28;6997;-85
2022/11/07 05:34:52;;;;;;;;;;;;;;;;;;5025985;28;8278;-86
2022/11/07 05:37:17;;;;;;;;;;;;;;;;;;5026524;28;8381;-86
2022/11/07 05:39:43;;;;;;;;;;;;;;;;;;5025744;28;7123;-86
2022/11/07 05:42:08;;;;;;;;;;;;;;;;;;5024649;28;7111;-90
2022/11/07 05:44:34;;;;;;;;;;;;;;;;;;5027340;28;8411;-89
2022/11/07 05:47:00;;;;;;;;;;;;;;;;;;5025867;28;8451;-88
2022/11/07 05:49:25;;;;;;;;;;;;;;;;;;5026097;28;8325;-89
2022/11/07 05:51:51;;;;;;;;;;;;;;;;;;5027077;28;8388;-89
2022/11/07 05:54:16;;;;;;;;;;;;;;;;;;5015698;28;7103;-89
2022/11/07 05:56:42;;;;;;;;;;;;;;;;;;5015747;28;8408;-89
2022/11/07 05:59:09;;;;;;;;;;;;;;;;;;5015918;28;7036;-90
2022/11/07 06:01:34;;;;;;;;;;;;;;;;;;5016023;28;8394;-88
2022/11/07 06:04:02;;;;;;;;;;;;;;;;;;5016420;28;7398;-91
2022/11/07 06:06:27;;;;;;;;;;;;;;;;;;5016403;28;7047;-88
2022/11/07 06:08:53;;;;;;;;;;;;;;;;;;5015831;28;7017;-88
2022/11/07 06:11:18;;;;;;;;;;;;;;;;;;5015691;28;8900;-88
2022/11/07 06:13:43;;;;;;;;;;;;;;;;;;5015956;28;8570;-89
2022/11/07 06:16:09;;;;;;;;;;;;;;;;;;5015451;28;7351;-87
2022/11/07 06:18:36;;;;;;;;;;;;;;;;;;5015584;28;7353;-89
2022/11/07 06:21:03;;;;;;;;;;;;;;;;;;5015956;28;7238;-88
2022/11/07 06:23:28;;;;;;;;;;;;;;;;;;5015452;28;8721;-88
2022/11/07 06:25:53;;;;;;;;;;;;;;;;;;5015211;28;8630;-88
2022/11/07 06:28:19;;;;;;;;;;;;;;;;;;5015481;28;8395;-88
2022/11/07 06:30:44;;;;;;;;;;;;;;;;;;5015153;28;7156;-88
2022/11/07 06:33:13;;;;;;;;;;;;;;;;;;5015209;28;8398;-89
2022/11/07 06:35:38;;;;;;;;;;;;;;;;;;5031913;28;7369;-89
2022/11/07 06:38:06;;;;;;;;;;;;;;;;;;5015626;28;8361;-82
2022/11/07 06:40:31;;;;;;;;;;;;;;;;;;5015855;28;7012;-89
2022/11/07 06:43:11;;;;;;;;;;;;;;;;;;5015498;28;8583;-88
2022/11/07 06:45:37;;;;;;;;;;;;;;;;;;5029410;28;9002;-87
2022/11/07 06:48:03;;;;;;;;;;;;;;;;;;5014988;28;8530;-88
2022/11/07 06:50:28;;;;;;;;;;;;;;;;;;5014596;28;7083;-88
2022/11/07 06:52:54;;;;;;;;;;;;;;;;;;5015155;28;8571;-89
2022/11/07 06:55:20;;;;;;;;;;;;;;;;;;5014896;28;8456;-88
2022/11/07 06:57:47;;;;;;;;;;;;;;;;;;5015174;28;7181;-89
2022/11/07 07:00:13;;;;;;;;;;;;;;;;;;5014783;28;8387;-88
2022/11/07 07:02:38;;;;;;;;;;;;;;;;;;5014821;28;8816;-88
2022/11/07 07:05:04;;;;;;;;;;;;;;;;;;5014976;28;7021;-88
2022/11/07 07:07:30;;;;;;;;;;;;;;;;;;5013957;28;8421;-89
2022/11/07 07:09:55;;;;;;;;;;;;;;;;;;5015089;28;8321;-87
2022/11/07 07:12:21;;;;;;;;;;;;;;;;;;5014433;28;8578;-88
2022/11/07 07:14:46;;;;;;;;;;;;;;;;;;5014360;28;7042;-88
2022/11/07 07:17:12;;;;;;;;;;;;;;;;;;5014858;28;8367;-88
2022/11/07 07:19:37;;;;;;;;;;;;;;;;;;5014813;28;8311;-88
2022/11/07 07:22:03;;;;;;;;;;;;;;;;;;5014778;28;8302;-88
2022/11/07 07:24:28;;;;;;;;;;;;;;;;;;5014659;28;8316;-88
2022/11/07 07:26:53;;;;;;;;;;;;;;;;;;5014482;28;8421;-87
2022/11/07 07:29:19;;;;;;;;;;;;;;;;;;5014264;28;8279;-88
2022/11/07 07:31:44;;;;;;;;;;;;;;;;;;5014151;28;8282;-88
2022/11/07 07:34:10;;;;;;;;;;;;;;;;;;5014035;28;7022;-88
2022/11/07 07:36:35;;;;;;;;;;;;;;;;;;5014425;28;9381;-88
2022/11/07 07:39:01;;;;;;;;;;;;;;;;;;5013890;28;7036;-88
2022/11/07 07:41:26;;;;;;;;;;;;;;;;;;5013653;28;7167;-88
2022/11/07 07:43:51;;;;;;;;;;;;;;;;;;5008701;28;8670;-88
2022/11/07 07:46:20;;;;;;;;;;;;;;;;;;4994231;28;7143;-88
2022/11/07 07:48:46;;;;;;;;;;;;;;;;;;4993838;28;8679;-88
2022/11/07 07:51:11;;;;;;;;;;;;;;;;;;4992614;28;7158;-87
2022/11/07 07:53:37;;;;;;;;;;;;;;;;;;4992629;28;8478;-88
2022/11/07 07:56:04;;;;;;;;;;;;;;;;;;4994331;28;7003;-88
2022/11/07 07:58:30;;;;;;;;;;;;;;;;;;4993589;28;7145;-88
2022/11/07 08:00:58;;;;;;;;;;;;;;;;;;4994131;28;7039;-88
2022/11/07 08:03:25;;;;;;;;;;;;;;;;;;4999396;28;7154;-85
2022/11/07 08:05:55;;;;;;;;;;;;;;;;;;5022113;28;7063;-87
2022/11/07 08:08:21;;;;;;;;;;;;;;;;;;5030018;28;7347;-87
2022/11/07 08:10:52;;;;;;;;;;;;;;;;;;5026786;28;7067;-87
2022/11/07 08:13:19;;;;;;;;;;;;;;;;;;4993995;28;7030;-88
2022/11/07 08:15:44;;;;;;;;;;;;;;;;;;4994036;28;7504;-88
2022/11/07 08:18:10;;;;;;;;;;;;;;;;;;4994317;28;7019;-89
2022/11/07 08:20:35;;;;;;;;;;;;;;;;;;4993875;28;8573;-88
2022/11/07 08:23:03;;;;;;;;;;;;;;;;;;5025493;28;8377;-89
2022/11/07 08:25:28;;;;;;;;;;;;;;;;;;5014028;28;7080;-85
2022/11/07 08:27:54;;;;;;;;;;;;;;;;;;5013871;28;8416;-87
2022/11/07 08:30:19;;;;;;;;;;;;;;;;;;5013641;28;7023;-88
2022/11/07 08:32:45;;;;;;;;;;;;;;;;;;5013469;28;7028;-87
2022/11/07 08:35:10;;;;;;;;;;;;;;;;;;5013954;28;7000;-88
2022/11/07 08:37:36;;;;;;;;;;;;;;;;;;5013091;28;8272;-87
2022/11/07 08:40:02;;;;;;;;;;;;;;;;;;5012612;28;8404;-73
2022/11/07 08:42:28;;;;;;;;;;;;;;;;;;5012303;28;8501;-84
2022/11/07 08:44:53;;;;;;;;;;;;;;;;;;5012704;28;8690;-84
2022/11/07 08:47:18;;;;;;;;;;;;;;;;;;5012398;28;8305;-84
2022/11/07 08:49:44;;;;;;;;;;;;;;;;;;5012164;28;8645;-84
2022/11/07 08:52:09;;;;;;;;;;;;;;;;;;5012528;28;7027;-84
2022/11/07 08:54:35;;;;;;;;;;;;;;;;;;5013332;28;8340;-84
2022/11/07 08:57:00;;;;;;;;;;;;;;;;;;5013543;28;7234;-83
2022/11/07 08:59:28;;;;;;;;;;;;;;;;;;5013291;28;8961;-83
2022/11/07 09:01:53;;;;;;;;;;;;;;;;;;5013228;28;8474;-83
2022/11/07 09:04:19;;;;;;;;;;;;;;;;;;5012888;28;7254;-84
2022/11/07 09:06:44;;;;;;;;;;;;;;;;;;5013324;28;8478;-82
2022/11/07 09:09:09;;;;;;;;;;;;;;;;;;5014364;28;7174;-83
2022/11/07 09:11:35;;;;;;;;;;;;;;;;;;5016694;28;7041;-82
2022/11/07 09:14:01;;;;;;;;;;;;;;;;;;5016852;28;7033;-83
2022/11/07 09:16:26;;;;;;;;;;;;;;;;;;5016563;28;7133;-83
2022/11/07 09:18:52;;;;;;;;;;;;;;;;;;5016436;28;8317;-83
2022/11/07 09:21:18;;;;;;;;;;;;;;;;;;5016596;28;8361;-83
2022/11/07 09:23:43;;;;;;;;;;;;;;;;;;5016556;28;7117;-83
2022/11/07 09:26:09;;;;;;;;;;;;;;;;;;5016798;28;8452;-83
2022/11/07 09:28:35;;;;;;;;;;;;;;;;;;5016871;28;7067;-83
2022/11/07 09:31:02;;;;;;;;;;;;;;;;;;5016328;28;9008;-83
2022/11/07 09:33:28;;;;;;;;;;;;;;;;;;5016439;28;8437;-83
2022/11/07 09:35:54;;;;;;;;;;;;;;;;;;5017029;28;8615;-83
2022/11/07 09:38:19;;;;;;;;;;;;;;;;;;5016253;28;8644;-83
2022/11/07 09:40:48;;;;;;;;;;;;;;;;;;5016310;28;7046;-83
2022/11/07 09:43:14;;;;;;;;;;;;;;;;;;5016316;28;6916;-85
2022/11/07 09:45:50;;;;;;;;;;;;;;;;;;5016230;28;8447;-86
2022/11/07 09:48:21;;;;;;;;;;;;;;;;;;5018229;28;7249;-86
2022/11/07 09:50:48;;;;;;;;;;;;;;;;;;5017183;28;7148;-86
2022/11/07 09:53:26;;;;;;;;;;;;;;;;;;5016305;28;8361;-86
2022/11/07 09:55:54;;;;;;;;;;;;;;;;;;5016481;28;7051;-86
2022/11/07 09:58:30;;;;;;;;;;;;;;;;;;5016308;28;8421;-87
2022/11/07 10:01:00;;;;;;;;;;;;;;;;;;5016358;28;6981;-86
2022/11/07 10:03:26;;;;;;;;;;;;;;;;;;5015942;28;8390;-86
2022/11/07 10:06:10;;;;;;;;;;;;;;;;;;5016185;28;6932;-86
2022/11/07 10:08:42;;;;;;;;;;;;;;;;;;5015783;28;6850;-86
2022/11/07 10:11:10;;;;;;;;;;;;;;;;;;5015675;28;8406;-85
2022/11/07 10:13:54;;;;;;;;;;;;;;;;;;5014990;28;8646;-88
2022/11/07 10:16:35;;;;;;;;;;;;;;;;;;5015701;28;7236;-87
2022/11/07 10:19:15;;;;;;;;;;;;;;;;;;5015821;28;8429;-87
2022/11/07 10:21:41;;;;;;;;;;;;;;;;;;5015548;28;8437;-87
2022/11/07 10:24:12;;;;;;;;;;;;;;;;;;5015464;28;8406;-87
2022/11/07 10:26:41;;;;;;;;;;;;;;;;;;5015395;28;7041;-88
2022/11/07 10:29:13;;;;;;;;;;;;;;;;;;5015435;28;7056;-88
2022/11/07 10:31:42;;;;;;;;;;;;;;;;;;5015261;28;8487;-88
2022/11/07 10:34:31;;;;;;;;;;;;;;;;;;5015308;28;8352;-87
2022/11/07 10:36:56;;;;;;;;;;;;;;;;;;5014843;28;8411;-87
2022/11/07 10:39:22;;;;;;;;;;;;;;;;;;5015429;28;8395;-87
2022/11/07 10:42:06;;;;;;;;;;;;;;;;;;5015044;28;7031;-87
2022/11/07 10:44:32;;;;;;;;;;;;;;;;;;5015241;28;7056;-87
2022/11/07 10:46:58;;;;;;;;;;;;;;;;;;5015629;28;8329;-86
2022/11/07 10:49:28;;;;;;;;;;;;;;;;;;5015011;28;8407;-87
2022/11/07 10:52:04;;;;;;;;;;;;;;;;;;5015636;28;8412;-87
2022/11/07 10:54:30;;;;;;;;;;;;;;;;;;5014971;28;8759;-87
2022/11/07 10:57:03;;;;;;;;;;;;;;;;;;5014891;28;8519;-86
2022/11/07 10:59:30;;;;;;;;;;;;;;;;;;5015090;28;8516;-87
2022/11/07 11:01:58;;;;;;;;;;;;;;;;;;5014745;28;7069;-87
2022/11/07 11:04:29;;;;;;;;;;;;;;;;;;5014705;28;7265;-87
2022/11/07 11:06:59;;;;;;;;;;;;;;;;;;5014678;28;8423;-87
2022/11/07 11:09:33;;;;;;;;;;;;;;;;;;5014901;28;8697;-87
2022/11/07 11:12:25;;;;;;;;;;;;;;;;;;5014819;28;7387;-87
2022/11/07 11:15:01;;;;;;;;;;;;;;;;;;5027958;28;8421;-87
2022/11/07 11:17:27;;;;;;;;;;;;;;;;;;5014349;28;7425;-88
2022/11/07 11:19:53;;;;;;;;;;;;;;;;;;5014655;28;8967;-87
2022/11/07 11:22:21;;;;;;;;;;;;;;;;;;5014769;28;7052;-88
2022/11/07 11:24:58;;;;;;;;;;;;;;;;;;5014270;28;8401;-88
2022/11/07 11:27:27;;;;;;;;;;;;;;;;;;5014216;28;8730;-87
2022/11/07 11:30:06;;;;;;;;;;;;;;;;;;5014323;28;8296;-87
2022/11/07 11:32:34;;;;;;;;;;;;;;;;;;5014212;28;7273;-88
2022/11/07 11:35:07;;;;;;;;;;;;;;;;;;5014211;28;8586;-88
2022/11/07 11:37:37;;;;;;;;;;;;;;;;;;5014009;28;7186;-88
2022/11/07 11:40:03;;;;;;;;;;;;;;;;;;5015326;28;7119;-88
2022/11/07 11:42:49;;;;;;;;;;;;;;;;;;5014695;28;7143;-86
2022/11/07 11:45:18;;;;;;;;;;;;;;;;;;5014202;28;7049;-87
2022/11/07 11:47:50;;;;;;;;;;;;;;;;;;5015189;28;7070;-87
2022/11/07 11:50:21;;;;;;;;;;;;;;;;;;5013978;28;8577;-87
2022/11/07 11:52:46;;;;;;;;;;;;;;;;;;5013894;28;8448;-87
2022/11/07 11:55:15;;;;;;;;;;;;;;;;;;5014212;28;7193;-87
2022/11/07 11:57:53;;;;;;;;;;;;;;;;;;5013892;28;7054;-87
2022/11/07 12:00:20;;;;;;;;;;;;;;;;;;5013677;28;8433;-87
2022/11/07 12:02:51;;;;;;;;;;;;;;;;;;5014306;28;8593;-88
2022/11/07 12:05:29;;;;;;;;;;;;;;;;;;5013646;28;8570;-88
2022/11/07 12:08:13;;;;;;;;;;;;;;;;;;5013571;28;8420;-88
2022/11/07 12:10:41;;;;;;;;;;;;;;;;;;5013703;28;8327;-87
2022/11/07 12:13:16;;;;;;;;;;;;;;;;;;5014115;28;8715;-87
2022/11/07 12:15:44;;;;;;;;;;;;;;;;;;5014348;28;8438;-87
2022/11/07 12:18:31;;;;;;;;;;;;;;;;;;5013528;28;8395;-88
2022/11/07 12:21:11;;;;;;;;;;;;;;;;;;5013569;28;9035;-87
2022/11/07 12:24:00;;;;;;;;;;;;;;;;;;5014214;28;8489;-88
2022/11/07 12:26:28;;;;;;;;;;;;;;;;;;5013236;28;8461;-88
2022/11/07 12:29:00;;;;;;;;;;;;;;;;;;5013606;28;8699;-88
2022/11/07 12:31:48;;;;;;;;;;;;;;;;;;5013593;28;8419;-87
2022/11/07 12:34:20;;;;;;;;;;;;;;;;;;5002438;28;7060;-87
2022/11/07 12:37:03;;;;;;;;;;;;;;;;;;5013491;28;7035;-87
2022/11/07 12:39:47;;;;;;;;;;;;;;;;;;5013515;28;8424;-88
2022/11/07 12:42:32;;;;;;;;;;;;;;;;;;5012988;28;7072;-82
2022/11/07 12:44:59;;;;;;;;;;;;;;;;;;5016410;28;8390;-78
2022/11/07 12:47:49;;;;;;;;;;;;;;;;;;5017099;28;8744;-86
2022/11/07 12:50:15;;;;;;;;;;;;;;;;;;5017129;28;8433;-86
2022/11/07 12:53:03;;;;;;;;;;;;;;;;;;5017246;28;7171;-86
2022/11/07 12:55:35;;;;;;;;;;;;;;;;;;5017915;28;8873;-87
2022/11/07 12:58:03;;;;;;;;;;;;;;;;;;5017408;28;8436;-86
2022/11/07 13:00:28;;;;;;;;;;;;;;;;;;5016810;28;8322;-86
2022/11/07 13:03:11;;;;;;;;;;;;;;;;;;5017401;28;7042;-86
2022/11/07 13:05:47;;;;;;;;;;;;;;;;;;5017297;28;9060;-86
2022/11/07 13:08:21;;;;;;;;;;;;;;;;;;5016749;28;8383;-86
2022/11/07 13:10:56;;;;;;;;;;;;;;;;;;5016600;28;8427;-86
2022/11/07 13:13:24;;;;;;;;;;;;;;;;;;5017261;28;8344;-86
2022/11/07 13:15:50;;;;;;;;;;;;;;;;;;5017338;28;8444;-86
2022/11/07 13:18:24;;;;;;;;;;;;;;;;;;5016719;28;7414;-88
2022/11/07 13:21:00;;;;;;;;;;;;;;;;;;5016665;28;8540;-86
2022/11/07 13:23:29;;;;;;;;;;;;;;;;;;5013343;28;7322;-85
2022/11/07 13:26:02;;;;;;;;;;;;;;;;;;5040803;28;7076;-87
2022/11/07 13:28:36;;;;;;;;;;;;;;;;;;5036204;28;8618;-87
2022/11/07 13:31:02;;;;;;;;;;;;;;;;;;5018190;28;7256;-87
2022/11/07 13:33:29;;;;;;;;;;;;;;;;;;5012568;28;7489;-87
2022/11/07 13:35:57;;;;;;;;;;;;;;;;;;5012852;28;8395;-87
2022/11/07 13:38:25;;;;;;;;;;;;;;;;;;5012660;28;8449;-87
2022/11/07 13:41:00;;;;;;;;;;;;;;;;;;5012696;28;8317;-87
2022/11/07 13:43:44;;;;;;;;;;;;;;;;;;5045156;28;8320;-86
2022/11/07 13:46:17;;;;;;;;;;;;;;;;;;5035942;28;7044;-87
2022/11/07 13:48:47;;;;;;;;;;;;;;;;;;5036198;28;8730;-87
2022/11/07 13:51:22;;;;;;;;;;;;;;;;;;5035586;28;8531;-86
2022/11/07 13:53:54;;;;;;;;;;;;;;;;;;5036124;28;7182;-87
2022/11/07 13:56:37;;;;;;;;;;;;;;;;;;5051468;28;8445;-87
2022/11/07 13:59:07;;;;;;;;;;;;;;;;;;5032798;28;8440;-86
2022/11/07 14:01:43;;;;;;;;;;;;;;;;;;5032236;28;8474;-84
2022/11/07 14:04:16;;;;;;;;;;;;;;;;;;5032151;28;7053;-86
2022/11/07 14:06:42;;;;;;;;;;;;;;;;;;5027718;28;7310;-84
2022/11/07 14:09:08;;;;;;;;;;;;;;;;;;5015697;28;8553;-88
2022/11/07 14:11:35;;;;;;;;;;;;;;;;;;5012401;28;7219;-87
2022/11/07 14:14:01;;;;;;;;;;;;;;;;;;5012742;28;7192;-87
2022/11/07 14:16:30;;;;;;;;;;;;;;;;;;5012358;28;8401;-87
2022/11/07 14:19:05;;;;;;;;;;;;;;;;;;5017121;28;8528;-87
2022/11/07 14:21:33;;;;;;;;;;;;;;;;;;4996086;28;8467;-87
2022/11/07 14:23:59;;;;;;;;;;;;;;;;;;4995899;28;7086;-86
2022/11/07 14:26:27;;;;;;;;;;;;;;;;;;4995754;28;8463;-87
2022/11/07 14:28:55;;;;;;;;;;;;;;;;;;4994502;28;7167;-87
2022/11/07 14:31:29;;;;;;;;;;;;;;;;;;4995552;28;7178;-86
2022/11/07 14:34:00;;;;;;;;;;;;;;;;;;4996054;28;7131;-87
2022/11/07 14:36:26;;;;;;;;;;;;;;;;;;4996604;28;7052;-88
2022/11/07 14:38:53;;;;;;;;;;;;;;;;;;5016468;28;6839;-87
2022/11/07 14:41:20;;;;;;;;;;;;;;;;;;5034807;28;6907;-88
2022/11/07 14:43:46;;;;;;;;;;;;;;;;;;5034830;28;7368;-87
2022/11/07 14:46:16;;;;;;;;;;;;;;;;;;5034966;28;7023;-87
2022/11/07 14:48:43;;;;;;;;;;;;;;;;;;5034612;28;8298;-87
2022/11/07 14:51:12;;;;;;;;;;;;;;;;;;5034215;28;8447;-87
2022/11/07 14:54:06;;;;;;;;;;;;;;;;;;5035237;28;8370;-87
2022/11/07 14:56:35;;;;;;;;;;;;;;;;;;5034508;28;7513;-88
2022/11/07 14:59:01;;;;;;;;;;;;;;;;;;5034397;28;8472;-87
2022/11/07 15:01:28;;;;;;;;;;;;;;;;;;5034663;28;8338;-88
2022/11/07 15:03:57;;;;;;;;;;;;;;;;;;5034788;28;8423;-86
2022/11/07 15:06:42;;;;;;;;;;;;;;;;;;5034090;28;8301;-88
2022/11/07 15:09:08;;;;;;;;;;;;;;;;;;5034526;28;6980;-88
2022/11/07 15:11:37;;;;;;;;;;;;;;;;;;5034729;28;8309;-87
2022/11/07 15:14:20;;;;;;;;;;;;;;;;;;5034331;28;7185;-87
2022/11/07 15:16:48;;;;;;;;;;;;;;;;;;5035067;28;8544;-87
2022/11/07 15:19:16;;;;;;;;;;;;;;;;;;5034379;28;8433;-87
2022/11/07 15:21:50;;;;;;;;;;;;;;;;;;5034469;28;8451;-87
2022/11/07 15:24:24;;;;;;;;;;;;;;;;;;5025200;28;8602;-87
2022/11/07 15:27:04;;;;;;;;;;;;;;;;;;5030940;28;8457;-87
2022/11/07 15:29:32;;;;;;;;;;;;;;;;;;5030840;28;8333;-87
2022/11/07 15:32:04;;;;;;;;;;;;;;;;;;5030749;28;7351;-88
2022/11/07 15:34:29;;;;;;;;;;;;;;;;;;5030742;28;6931;-88
2022/11/07 15:36:55;;;;;;;;;;;;;;;;;;5030483;28;8290;-88
2022/11/07 15:39:20;;;;;;;;;;;;;;;;;;5030869;28;8506;-87
2022/11/07 15:41:46;;;;;;;;;;;;;;;;;;5030317;28;8305;-87
2022/11/07 15:44:11;;;;;;;;;;;;;;;;;;5031160;28;8365;-87
2022/11/07 15:46:38;;;;;;;;;;;;;;;;;;5030912;28;7179;-88
2022/11/07 15:49:05;;;;;;;;;;;;;;;;;;5030245;28;8511;-87
2022/11/07 15:51:31;;;;;;;;;;;;;;;;;;5030390;28;6850;-87
2022/11/07 15:53:56;;;;;;;;;;;;;;;;;;5030233;28;8389;-87
2022/11/07 15:56:23;;;;;;;;;;;;;;;;;;5027244;28;8285;-87
2022/11/07 15:58:51;;;;;;;;;;;;;;;;;;4994084;28;7182;-88
2022/11/07 16:01:16;;;;;;;;;;;;;;;;;;4994157;28;8430;-87
2022/11/07 16:03:42;;;;;;;;;;;;;;;;;;4994239;28;7224;-88
2022/11/07 16:06:25;;;;;;;;;;;;;;;;;;4994151;28;7046;-87
2022/11/07 16:08:52;;;;;;;;;;;;;;;;;;5029302;28;7146;-87
2022/11/07 16:11:17;;;;;;;;;;;;;;;;;;5013856;28;8695;-87
2022/11/07 16:13:43;;;;;;;;;;;;;;;;;;5013736;28;8365;-86
2022/11/07 16:16:16;;;;;;;;;;;;;;;;;;5014756;28;7231;-87
2022/11/07 16:18:44;;;;;;;;;;;;;;;;;;5015786;28;8412;-88
2022/11/07 16:21:09;;;;;;;;;;;;;;;;;;5017732;28;8652;-88
2022/11/07 16:23:35;;;;;;;;;;;;;;;;;;5017808;28;8618;-88
2022/11/07 16:26:00;;;;;;;;;;;;;;;;;;5018161;28;6885;-87
2022/11/07 16:28:29;;;;;;;;;;;;;;;;;;5019753;28;8684;-87
2022/11/07 16:30:55;;;;;;;;;;;;;;;;;;5017686;28;7035;-88
2022/11/07 16:33:21;;;;;;;;;;;;;;;;;;5019147;28;6805;-87
2022/11/07 16:35:52;;;;;;;;;;;;;;;;;;5017912;28;8396;-85
2022/11/07 16:38:19;;;;;;;;;;;;;;;;;;5018157;28;8792;-87
2022/11/07 16:40:45;;;;;;;;;;;;;;;;;;5017356;28;7154;-87
2022/11/07 16:43:11;;;;;;;;;;;;;;;;;;5016933;28;8851;-87
2022/11/07 16:45:42;;;;;;;;;;;;;;;;;;5017779;28;8942;-87
2022/11/07 16:48:19;;;;;;;;;;;;;;;;;;5016870;28;7928;-88
2022/11/07 16:50:45;;;;;;;;;;;;;;;;;;5016952;28;7047;-87
2022/11/07 16:53:11;;;;;;;;;;;;;;;;;;5017300;28;8392;-89
2022/11/07 16:55:37;;;;;;;;;;;;;;;;;;5025871;28;7059;-87
2022/11/07 16:58:03;;;;;;;;;;;;;;;;;;5036610;28;7052;-87
2022/11/07 17:00:28;;;;;;;;;;;;;;;;;;5036983;28;8404;-88
2022/11/07 17:02:54;;;;;;;;;;;;;;;;;;5036761;28;8311;-89
2022/11/07 17:05:19;;;;;;;;;;;;;;;;;;5036464;28;7196;-87
2022/11/07 17:07:47;;;;;;;;;;;;;;;;;;5036925;28;8632;-88
2022/11/07 17:10:16;;;;;;;;;;;;;;;;;;5036946;28;7269;-87
2022/11/07 17:12:41;;;;;;;;;;;;;;;;;;5037051;28;7189;-88
2022/11/07 17:15:07;;;;;;;;;;;;;;;;;;5037304;28;7057;-87
2022/11/07 17:17:33;;;;;;;;;;;;;;;;;;5040232;28;8358;-87
2022/11/07 17:19:58;;;;;;;;;;;;;;;;;;5031541;28;8551;-88
2022/11/07 17:22:24;;;;;;;;;;;;;;;;;;5005186;28;7030;-86
2022/11/07 17:24:51;;;;;;;;;;;;;;;;;;5009292;28;8426;-87